Redcliffe, Australia
Current Conditions -  °F | °C
As of 9:00 AM on Wednesday 26 Nov 2014 (Local Time) from YBBN Reporting Station
Rain Showers Rain Showers  
Wind Chill: 79°   Ceiling: 4400
Heat Index: 81°   Visibility: 6mi
Dew Point: 70°   Wind: 14mph
Humidity: 74%   Direction: 20°NNE
Pressure: 30.03"   Gusts: NA
Location:  27.23°S, 153.12°E
Report Text: YBBN 252300Z 02012KT 9999 VCSH FEW016 SCT022 BKN044 26/21 Q1017 INTER 2300/0200 3000 SHRA BKN012
Loading
Personal Weather Stations






























Interactive Weather Map New forecast layout! Learn more

10-Day Weather Forecast

Advertisements
Track Severe Weather on mobile